Time;durP1;ratioP1;P1;durP2;ratioP2;P2;SDS_P1;SDS_P2;PMS_P1;PMS_P2;Temp;Humidity;BMP_temperature;BMP_pressure;BME280_temperature;BME280_humidity;BME280_pressure;Samples;Min_cycle;Max_cycle;Signal;HPM_P1;HPM_P2
2022/01/04 00:00:10;;;;;;;;;;;;;;;8.51;87.43;100233.81;5004217;28;19916;-76
2022/01/04 00:02:35;;;;;;;;;;;;;;;8.50;87.28;100229.47;4997599;28;20162;-76
2022/01/04 00:05:00;;;;;;;;;;;;;;;8.48;87.31;100218.16;5003972;28;19941;-76
2022/01/04 00:07:26;;;;;;;;;;;;;;;8.49;87.38;100211.28;5003220;28;19932;-76
2022/01/04 00:09:52;;;;;;;;;;;;;;;8.47;87.16;100205.16;5003524;28;19909;-76
2022/01/04 00:15:02;;;;;;;;;;;;;;;8.46;87.36;100208.63;5003109;28;19956;-76
2022/01/04 00:17:28;;;;;;;;;;;;;;;8.45;87.42;100207.72;5000336;28;19914;-77
2022/01/04 00:19:54;;;;;;;;;;;;;;;8.44;87.28;100195.56;5000571;28;20156;-77
2022/01/04 00:22:19;;;;;;;;;;;;;;;8.44;87.43;100198.16;5001865;28;19993;-76
2022/01/04 00:24:44;;;;;;;;;;;;;;;8.43;87.32;100187.72;5001817;28;19916;-77
2022/01/04 00:27:09;;;;;;;;;;;;;;;8.43;87.38;100188.63;5004225;28;19910;-76
2022/01/04 00:29:34;;;;;;;;;;;;;;;8.42;87.39;100179.06;5001200;28;19917;-76
2022/01/04 00:32:00;;;;;;;;;;;;;;;8.41;87.38;100163.47;5002015;28;19929;-76
2022/01/04 00:34:25;;;;;;;;;;;;;;;8.40;87.40;100153.91;5002730;28;19910;-76
2022/01/04 00:36:50;;;;;;;;;;;;;;;8.40;87.40;100154.81;5000783;28;19916;-76
2022/01/04 00:39:15;;;;;;;;;;;;;;;8.37;87.39;100141.72;5003019;28;20072;-76
2022/01/04 00:41:40;;;;;;;;;;;;;;;8.35;87.44;100136.50;5003071;28;19948;-76
2022/01/04 00:44:06;;;;;;;;;;;;;;;8.35;87.56;100146.03;5001721;28;19957;-76
2022/01/04 00:46:31;;;;;;;;;;;;;;;8.33;87.50;100137.34;5003445;28;20079;-76
2022/01/04 00:49:12;;;;;;;;;;;;;;;8.32;87.59;100136.44;5001451;28;19919;-76
2022/01/04 00:51:37;;;;;;;;;;;;;;;8.33;87.44;100124.38;5002629;28;19916;-76
2022/01/04 00:54:02;;;;;;;;;;;;;;;8.32;87.50;100122.59;5001380;28;20642;-76
2022/01/04 00:56:28;;;;;;;;;;;;;;;8.31;87.71;100120.84;5002913;28;19914;-76
2022/01/04 00:58:53;;;;;;;;;;;;;;;8.29;87.58;100123.41;5002904;28;19932;-76
2022/01/04 01:01:19;;;;;;;;;;;;;;;8.29;87.70;100117.34;5002956;28;19909;-76
2022/01/04 01:03:44;;;;;;;;;;;;;;;8.29;87.82;100109.56;5001957;28;20016;-76
2022/01/04 01:06:09;;;;;;;;;;;;;;;8.27;87.70;100101.75;5001251;28;20339;-76
2022/01/04 01:08:35;;;;;;;;;;;;;;;8.27;87.87;100100.84;5001128;28;19952;-76
2022/01/04 01:11:00;;;;;;;;;;;;;;;8.25;87.90;100099.97;5003017;28;20037;-76
2022/01/04 01:13:25;;;;;;;;;;;;;;;8.26;87.90;100106.91;5002899;28;19910;-76
2022/01/04 01:15:50;;;;;;;;;;;;;;;8.24;87.78;100109.47;5001392;28;19918;-76
2022/01/04 01:18:17;;;;;;;;;;;;;;;8.22;87.94;100103.38;4997542;28;20191;-76
2022/01/04 01:20:42;;;;;;;;;;;;;;;8.22;87.66;100100.78;5002162;28;20037;-76
2022/01/04 01:23:07;;;;;;;;;;;;;;;8.21;87.72;100099.00;5008214;28;19910;-76
2022/01/04 01:25:33;;;;;;;;;;;;;;;8.21;88.03;100095.53;5007288;28;19909;-76
2022/01/04 01:27:58;;;;;;;;;;;;;;;8.18;87.79;100088.56;5010620;28;19910;-76
2022/01/04 01:30:24;;;;;;;;;;;;;;;8.17;87.81;100084.25;5005077;28;20096;-76
2022/01/04 01:32:51;;;;;;;;;;;;;;;8.15;88.04;100084.22;5008092;28;19983;-76
2022/01/04 01:35:16;;;;;;;;;;;;;;;8.15;88.02;100080.72;5005948;28;19965;-77
2022/01/04 01:37:41;;;;;;;;;;;;;;;8.15;87.92;100072.94;5003681;28;19909;-77
2022/01/04 01:40:07;;;;;;;;;;;;;;;8.13;87.86;100083.28;5008149;28;19956;-77
2022/01/04 01:42:32;;;;;;;;;;;;;;;8.13;87.91;100072.91;5008228;28;19914;-77
2022/01/04 01:44:58;;;;;;;;;;;;;;;8.11;87.90;100064.22;5008383;28;19909;-76
2022/01/04 01:47:23;;;;;;;;;;;;;;;8.10;88.06;100062.47;5009480;28;19910;-77
2022/01/04 01:49:49;;;;;;;;;;;;;;;8.09;88.04;100057.25;5008731;28;19910;-76
2022/01/04 01:52:14;;;;;;;;;;;;;;;8.09;87.96;100057.25;5008212;28;20021;-77
2022/01/04 01:54:39;;;;;;;;;;;;;;;8.07;87.90;100054.63;5008409;28;19924;-76
2022/01/04 01:57:05;;;;;;;;;;;;;;;8.07;87.90;100051.16;5003084;28;19910;-76
2022/01/04 01:59:30;;;;;;;;;;;;;;;8.06;87.85;100058.06;5006467;28;19910;-76
2022/01/04 02:01:56;;;;;;;;;;;;;;;8.06;88.04;100060.66;5009472;28;19916;-76
2022/01/04 02:04:21;;;;;;;;;;;;;;;8.06;87.81;100057.19;5008029;28;19910;-77
2022/01/04 02:06:47;;;;;;;;;;;;;;;8.04;87.91;100046.78;5008585;28;20117;-76
2022/01/04 02:09:12;;;;;;;;;;;;;;;8.04;87.98;100046.78;5008473;28;19956;-76
2022/01/04 02:11:39;;;;;;;;;;;;;;;8.04;87.83;100039.00;5000087;28;19932;-76
2022/01/04 02:14:05;;;;;;;;;;;;;;;8.04;88.22;100027.72;5008627;28;19944;-76
2022/01/04 02:16:31;;;;;;;;;;;;;;;8.00;88.09;100029.41;5008580;28;19913;-76
2022/01/04 02:19:00;;;;;;;;;;;;;;;7.99;87.97;100025.03;5008299;28;19933;-76
2022/01/04 02:21:25;;;;;;;;;;;;;;;7.99;87.93;100018.16;5008480;28;20176;-77
2022/01/04 02:23:50;;;;;;;;;;;;;;;7.98;87.95;100018.09;5004609;28;19960;-76
2022/01/04 02:26:16;;;;;;;;;;;;;;;7.98;88.19;100013.81;5011710;28;19909;-77
2022/01/04 02:28:42;;;;;;;;;;;;;;;7.96;88.08;100012.88;5008034;28;19917;-76
2022/01/04 02:31:07;;;;;;;;;;;;;;;7.95;87.92;100003.38;5008559;28;19917;-76
2022/01/04 02:33:32;;;;;;;;;;;;;;;7.94;88.06;100008.53;4998883;28;20003;-76
2022/01/04 02:35:58;;;;;;;;;;;;;;;7.93;88.15;100006.75;5005696;28;20016;-76
2022/01/04 02:38:23;;;;;;;;;;;;;;;7.92;88.01;100000.72;5004288;28;19910;-76
2022/01/04 02:40:48;;;;;;;;;;;;;;;7.92;87.98;99999.81;5004447;28;19953;-76
2022/01/04 02:43:13;;;;;;;;;;;;;;;7.91;88.07;100000.69;5003268;28;20068;-76
2022/01/04 02:45:38;;;;;;;;;;;;;;;7.91;88.14;99991.16;5005237;28;19932;-76
2022/01/04 02:48:04;;;;;;;;;;;;;;;7.91;88.14;99990.31;5005860;28;20093;-76
2022/01/04 02:50:29;;;;;;;;;;;;;;;7.91;88.06;99985.13;5004446;28;19985;-76
2022/01/04 02:52:54;;;;;;;;;;;;;;;7.91;88.01;99975.59;5005784;28;19913;-76
2022/01/04 02:55:20;;;;;;;;;;;;;;;7.89;88.07;99982.47;5003879;28;19917;-76
2022/01/04 02:57:45;;;;;;;;;;;;;;;7.89;88.29;99976.41;5005745;28;19909;-76
2022/01/04 03:00:12;;;;;;;;;;;;;;;7.87;88.17;99970.34;5005395;28;19910;-77
2022/01/04 03:02:37;;;;;;;;;;;;;;;7.87;88.11;99967.75;5005319;28;19917;-76
2022/01/04 03:05:04;;;;;;;;;;;;;;;7.88;87.96;99972.06;5003131;28;19925;-76
2022/01/04 03:07:29;;;;;;;;;;;;;;;7.86;88.08;99959.06;5004304;28;19909;-76
2022/01/04 03:09:54;;;;;;;;;;;;;;;7.86;88.16;99960.78;5004796;28;19956;-77
2022/01/04 03:12:19;;;;;;;;;;;;;;;7.86;88.19;99960.78;5003493;28;19909;-77
2022/01/04 03:14:45;;;;;;;;;;;;;;;7.84;88.27;99953.84;5004487;28;19909;-77
2022/01/04 03:17:10;;;;;;;;;;;;;;;7.84;88.22;99948.66;4999892;28;19917;-77
2022/01/04 03:19:35;;;;;;;;;;;;;;;7.83;88.06;99941.75;5002320;28;19917;-76
2022/01/04 03:22:00;;;;;;;;;;;;;;;7.82;88.10;99933.91;5004533;28;20179;-77
2022/01/04 03:24:26;;;;;;;;;;;;;;;7.83;87.98;99927.88;5003500;28;19960;-76
2022/01/04 03:26:51;;;;;;;;;;;;;;;7.82;87.97;99916.66;5003586;28;20004;-77
2022/01/04 03:29:16;;;;;;;;;;;;;;;7.82;88.10;99913.16;5001185;28;19929;-77
2022/01/04 03:31:42;;;;;;;;;;;;;;;7.82;87.94;99902.78;5009179;28;20161;-77
2022/01/04 03:34:08;;;;;;;;;;;;;;;7.81;88.02;99904.50;5003887;28;19910;-77
2022/01/04 03:36:33;;;;;;;;;;;;;;;7.80;88.10;99899.31;4999724;28;19933;-77
2022/01/04 03:38:59;;;;;;;;;;;;;;;7.79;87.86;99895.84;5002312;28;19925;-76
2022/01/04 03:41:26;;;;;;;;;;;;;;;7.79;88.05;99881.97;5011234;28;19909;-76
2022/01/04 03:43:51;;;;;;;;;;;;;;;7.79;88.21;99876.81;5003209;28;19925;-76
2022/01/04 03:46:17;;;;;;;;;;;;;;;7.78;88.01;99873.34;5007711;28;19916;-77
2022/01/04 03:48:42;;;;;;;;;;;;;;;7.78;88.05;99859.50;4999033;28;20084;-76
2022/01/04 03:51:08;;;;;;;;;;;;;;;7.79;88.19;99861.25;5002302;28;19909;-77
2022/01/04 03:53:34;;;;;;;;;;;;;;;7.77;88.14;99853.44;5003344;28;19933;-77
2022/01/04 03:55:59;;;;;;;;;;;;;;;7.76;88.15;99846.53;5003784;28;20060;-76
2022/01/04 03:58:24;;;;;;;;;;;;;;;7.75;88.14;99852.53;5004526;28;19913;-76
2022/01/04 04:00:49;;;;;;;;;;;;;;;7.76;88.21;99851.72;5003210;28;20076;-76
2022/01/04 04:03:15;;;;;;;;;;;;;;;7.74;88.16;99847.34;5002910;28;20140;-76
2022/01/04 04:05:40;;;;;;;;;;;;;;;7.74;88.27;99842.16;5003841;28;19916;-76
2022/01/04 04:08:06;;;;;;;;;;;;;;;7.71;88.07;99837.75;5004634;28;19905;-77
2022/01/04 04:10:31;;;;;;;;;;;;;;;7.70;88.17;99836.00;5002272;28;19925;-77
2022/01/04 04:12:56;;;;;;;;;;;;;;;7.70;88.26;99829.97;5002407;28;20148;-76
2022/01/04 04:15:21;;;;;;;;;;;;;;;7.70;88.40;99828.22;5003463;28;19917;-76
2022/01/04 04:17:47;;;;;;;;;;;;;;;7.68;88.20;99819.56;5003292;28;20144;-76
2022/01/04 04:20:13;;;;;;;;;;;;;;;7.70;88.42;99814.41;5002289;28;20048;-77
2022/01/04 04:22:38;;;;;;;;;;;;;;;7.70;88.38;99802.31;5003528;28;19910;-77
2022/01/04 04:25:03;;;;;;;;;;;;;;;7.71;88.46;99800.59;5004136;28;20133;-77
2022/01/04 04:27:28;;;;;;;;;;;;;;;7.69;88.45;99797.97;5009343;28;19917;-76
2022/01/04 04:29:54;;;;;;;;;;;;;;;7.70;88.48;99802.31;5003478;28;19929;-77
2022/01/04 04:32:19;;;;;;;;;;;;;;;7.70;88.43;99799.72;5003673;28;19909;-77
2022/01/04 04:34:44;;;;;;;;;;;;;;;7.70;88.35;99798.84;5002603;28;20207;-77
2022/01/04 04:37:09;;;;;;;;;;;;;;;7.70;88.35;99806.63;5002981;28;20206;-76
2022/01/04 04:39:34;;;;;;;;;;;;;;;7.69;88.46;99803.16;5001302;28;19910;-76
2022/01/04 04:42:00;;;;;;;;;;;;;;;7.70;88.64;99793.66;5002955;28;19918;-76
2022/01/04 04:44:25;;;;;;;;;;;;;;;7.69;88.63;99792.81;5002418;28;19910;-76
2022/01/04 04:46:50;;;;;;;;;;;;;;;7.69;88.52;99799.69;5002974;28;19985;-77
2022/01/04 04:49:16;;;;;;;;;;;;;;;7.67;88.45;99797.06;5001722;28;19948;-77
2022/01/04 04:51:42;;;;;;;;;;;;;;;7.66;88.40;99788.44;5000565;28;19997;-77
2022/01/04 04:54:07;;;;;;;;;;;;;;;7.66;88.57;99797.91;5001104;28;19910;-77
2022/01/04 04:56:34;;;;;;;;;;;;;;;7.66;88.55;99798.78;5001730;28;19910;-77
2022/01/04 04:58:59;;;;;;;;;;;;;;;7.66;88.56;99805.69;5003138;28;19910;-76
2022/01/04 05:01:24;;;;;;;;;;;;;;;7.66;88.55;99797.91;5002196;28;19937;-77
2022/01/04 05:03:51;;;;;;;;;;;;;;;7.65;88.52;99797.03;5003210;28;19930;-76
2022/01/04 05:06:17;;;;;;;;;;;;;;;7.64;88.34;99791.81;5002605;28;19981;-76
2022/01/04 05:08:42;;;;;;;;;;;;;;;7.64;88.64;99784.06;5002109;28;19909;-76
2022/01/04 05:11:07;;;;;;;;;;;;;;;7.63;88.63;99790.97;5002578;28;19976;-76
2022/01/04 05:13:32;;;;;;;;;;;;;;;7.66;88.47;99797.91;5002793;28;19909;-76
2022/01/04 05:15:58;;;;;;;;;;;;;;;7.65;88.41;99796.19;5001852;28;19957;-76
2022/01/04 05:18:23;;;;;;;;;;;;;;;7.64;88.75;99779.72;5003211;28;20187;-76
2022/01/04 05:20:48;;;;;;;;;;;;;;;7.64;88.32;99779.72;4994185;28;19925;-76
2022/01/04 05:23:13;;;;;;;;;;;;;;;7.64;88.47;99782.31;4997795;28;19981;-76
2022/01/04 05:25:38;;;;;;;;;;;;;;;7.64;88.55;99769.34;5004258;28;19909;-76
2022/01/04 05:28:04;;;;;;;;;;;;;;;7.64;88.50;99765.91;5002457;28;19910;-76
2022/01/04 05:30:29;;;;;;;;;;;;;;;7.63;88.47;99770.22;5001433;28;20243;-76
2022/01/04 05:32:54;;;;;;;;;;;;;;;7.63;88.75;99757.25;5000846;28;20145;-76
2022/01/04 05:35:19;;;;;;;;;;;;;;;7.63;88.70;99762.44;5002547;28;19910;-76
2022/01/04 05:37:44;;;;;;;;;;;;;;;7.63;88.71;99751.19;5001397;28;20099;-76
2022/01/04 05:40:10;;;;;;;;;;;;;;;7.61;88.84;99738.19;4996136;28;20036;-76
2022/01/04 05:42:35;;;;;;;;;;;;;;;7.61;88.99;99734.75;5002737;28;19957;-77
2022/01/04 05:45:00;;;;;;;;;;;;;;;7.57;88.78;99733.81;5001250;28;19918;-77
2022/01/04 05:47:26;;;;;;;;;;;;;;;7.58;88.71;99732.09;5000959;28;19949;-76
2022/01/04 05:49:52;;;;;;;;;;;;;;;7.55;88.89;99726.88;5002090;28;19917;-76
2022/01/04 05:52:18;;;;;;;;;;;;;;;7.54;89.23;99727.69;4998502;28;19945;-76
2022/01/04 05:54:45;;;;;;;;;;;;;;;7.53;89.17;99723.34;4996746;28;19964;-76
2022/01/04 05:57:10;;;;;;;;;;;;;;;7.53;89.41;99728.53;4998710;28;20160;-76
2022/01/04 05:59:35;;;;;;;;;;;;;;;7.51;89.41;99720.75;5001971;28;19921;-76
2022/01/04 06:02:00;;;;;;;;;;;;;;;7.51;89.43;99731.09;5001876;28;19977;-76
2022/01/04 06:04:26;;;;;;;;;;;;;;;7.51;89.59;99730.25;4999189;28;20121;-76
2022/01/04 06:06:51;;;;;;;;;;;;;;;7.51;89.48;99727.66;4998508;28;19910;-76
2022/01/04 06:09:23;;;;;;;;;;;;;;;7.51;89.56;99725.06;5005123;28;19914;-76
2022/01/04 06:16:57;;;;;;;;;;;;;;;7.49;89.31;99712.94;5005328;28;19932;-76
2022/01/04 06:19:23;;;;;;;;;;;;;;;7.48;89.52;99718.97;5003094;28;20450;-76
2022/01/04 06:21:48;;;;;;;;;;;;;;;7.48;89.86;99716.38;5003804;28;19909;-76
2022/01/04 06:24:13;;;;;;;;;;;;;;;7.48;89.50;99708.59;5004817;28;20108;-77
2022/01/04 06:26:38;;;;;;;;;;;;;;;7.47;89.70;99699.09;5005269;28;19969;-76
2022/01/04 06:29:04;;;;;;;;;;;;;;;7.47;89.74;99699.09;5005430;28;19910;-76
2022/01/04 06:31:29;;;;;;;;;;;;;;;7.48;89.69;99705.13;5003333;28;19909;-77
2022/01/04 06:33:54;;;;;;;;;;;;;;;7.47;89.65;99709.47;5004861;28;20041;-76
2022/01/04 06:36:20;;;;;;;;;;;;;;;7.46;89.67;99718.06;5004917;28;20141;-76
2022/01/04 06:38:45;;;;;;;;;;;;;;;7.48;90.00;99716.38;5004094;28;19992;-76
2022/01/04 06:41:10;;;;;;;;;;;;;;;7.46;89.95;99702.53;5005046;28;19959;-76
2022/01/04 06:43:36;;;;;;;;;;;;;;;7.46;89.83;99701.66;5005992;28;19909;-76
2022/01/04 06:46:01;;;;;;;;;;;;;;;7.45;90.07;99705.94;5005389;28;19912;-76
2022/01/04 06:48:26;;;;;;;;;;;;;;;7.45;89.93;99703.34;5003828;28;19916;-76
2022/01/04 06:50:51;;;;;;;;;;;;;;;7.45;89.95;99700.75;5004431;28;19952;-76
2022/01/04 06:53:17;;;;;;;;;;;;;;;7.45;89.65;99690.41;5004674;28;19916;-76
2022/01/04 06:55:42;;;;;;;;;;;;;;;7.45;89.91;99680.03;5001064;28;19971;-76
2022/01/04 06:58:07;;;;;;;;;;;;;;;7.45;90.04;99680.03;5003060;28;19926;-76
2022/01/04 07:00:32;;;;;;;;;;;;;;;7.45;89.95;99679.16;5004843;28;19910;-76
2022/01/04 07:02:57;;;;;;;;;;;;;;;7.45;90.11;99677.44;5004558;28;19914;-77
2022/01/04 07:05:23;;;;;;;;;;;;;;;7.45;89.91;99685.22;5004606;28;19995;-76
2022/01/04 07:07:48;;;;;;;;;;;;;;;7.44;89.98;99683.50;5005366;28;19932;-76
2022/01/04 07:10:13;;;;;;;;;;;;;;;7.44;90.01;99662.75;5004759;28;20067;-76
2022/01/04 07:12:38;;;;;;;;;;;;;;;7.43;89.91;99666.19;5004787;28;19917;-77
2022/01/04 07:15:04;;;;;;;;;;;;;;;7.45;89.86;99650.66;5004617;28;19922;-76
2022/01/04 07:17:29;;;;;;;;;;;;;;;7.43;89.91;99653.22;5004736;28;19955;-77
2022/01/04 07:19:54;;;;;;;;;;;;;;;7.41;90.05;99657.50;5003448;28;20013;-76
2022/01/04 07:22:19;;;;;;;;;;;;;;;7.40;90.07;99668.72;5002837;28;19952;-76
2022/01/04 07:24:45;;;;;;;;;;;;;;;7.41;90.18;99667.88;5004027;28;19910;-76
2022/01/04 07:27:10;;;;;;;;;;;;;;;7.40;90.27;99650.59;5011754;28;19949;-76
2022/01/04 07:29:35;;;;;;;;;;;;;;;7.39;90.34;99635.88;5004527;28;20148;-76
2022/01/04 07:32:00;;;;;;;;;;;;;;;7.39;90.17;99638.47;5004081;28;19922;-76
2022/01/04 07:34:26;;;;;;;;;;;;;;;7.39;90.08;99627.25;5004114;28;19914;-76
2022/01/04 07:36:51;;;;;;;;;;;;;;;7.37;90.33;99619.44;5004150;28;19952;-76
2022/01/04 07:39:16;;;;;;;;;;;;;;;7.36;90.33;99617.69;5003878;28;19929;-76
2022/01/04 07:41:42;;;;;;;;;;;;;;;7.37;89.99;99613.38;5004383;28;19910;-76
2022/01/04 07:44:07;;;;;;;;;;;;;;;7.36;90.31;99606.44;5003494;28;19914;-76
2022/01/04 07:46:32;;;;;;;;;;;;;;;7.34;90.27;99616.78;5004578;28;19910;-76
2022/01/04 07:48:57;;;;;;;;;;;;;;;7.34;90.21;99619.38;5003809;28;19922;-76
2022/01/04 07:51:22;;;;;;;;;;;;;;;7.33;90.14;99622.81;4998651;28;19913;-76
2022/01/04 07:53:48;;;;;;;;;;;;;;;7.34;90.21;99628.88;5018198;28;20041;-76
2022/01/04 07:56:13;;;;;;;;;;;;;;;7.33;90.37;99633.19;5002139;28;19953;-76
2022/01/04 07:58:38;;;;;;;;;;;;;;;7.34;90.33;99637.50;5003892;28;19910;-76
2022/01/04 08:01:03;;;;;;;;;;;;;;;7.34;90.40;99652.19;5003812;28;19930;-76
2022/01/04 08:03:28;;;;;;;;;;;;;;;7.34;90.40;99645.28;5004507;28;19910;-77
2022/01/04 08:05:54;;;;;;;;;;;;;;;7.35;90.28;99641.84;5002455;28;20159;-76
2022/01/04 08:08:19;;;;;;;;;;;;;;;7.36;90.54;99635.84;5000700;28;20061;-76
2022/01/04 08:10:46;;;;;;;;;;;;;;;7.37;90.53;99629.81;5002972;28;19976;-76
2022/01/04 08:13:12;;;;;;;;;;;;;;;7.38;90.43;99628.09;4999066;28;19910;-77
2022/01/04 08:15:37;;;;;;;;;;;;;;;7.38;90.65;99626.34;5003241;28;20488;-77
2022/01/04 08:18:02;;;;;;;;;;;;;;;7.39;90.34;99633.28;5003577;28;19917;-77
2022/01/04 08:20:28;;;;;;;;;;;;;;;7.39;90.15;99637.59;5003105;28;19905;-77
2022/01/04 08:22:53;;;;;;;;;;;;;;;7.39;90.33;99637.59;5001816;28;19917;-77
2022/01/04 08:25:18;;;;;;;;;;;;;;;7.38;90.27;99641.91;5002806;28;20099;-77
2022/01/04 08:27:43;;;;;;;;;;;;;;;7.40;90.59;99639.34;5002105;28;19906;-76
2022/01/04 08:30:10;;;;;;;;;;;;;;;7.39;90.35;99633.28;5000533;28;19909;-76
2022/01/04 08:32:37;;;;;;;;;;;;;;;7.40;90.37;99634.16;5002500;28;19910;-77
2022/01/04 08:35:02;;;;;;;;;;;;;;;7.40;90.29;99636.75;5002460;28;19910;-76
2022/01/04 08:37:29;;;;;;;;;;;;;;;7.40;90.46;99644.50;5002249;28;20156;-77
2022/01/04 08:39:54;;;;;;;;;;;;;;;7.40;90.36;99645.41;5001359;28;19914;-77
2022/01/04 08:42:22;;;;;;;;;;;;;;;7.41;89.99;99647.13;5006987;28;20083;-77
2022/01/04 08:44:47;;;;;;;;;;;;;;;7.41;89.99;99667.88;5001404;28;20064;-77
2022/01/04 08:47:13;;;;;;;;;;;;;;;7.41;90.44;99678.22;5001251;28;19913;-77
2022/01/04 08:49:38;;;;;;;;;;;;;;;7.42;90.04;99672.22;4995341;28;19925;-77
2022/01/04 08:52:05;;;;;;;;;;;;;;;7.43;90.39;99671.38;4997438;28;19957;-76
2022/01/04 08:54:30;;;;;;;;;;;;;;;7.43;90.45;99673.97;4999405;28;19910;-76
2022/01/04 08:56:55;;;;;;;;;;;;;;;7.43;90.35;99684.31;5002857;28;19921;-77
2022/01/04 08:59:21;;;;;;;;;;;;;;;7.43;90.08;99684.31;4999677;28;19924;-76
2022/01/04 09:01:46;;;;;;;;;;;;;;;7.44;90.13;99682.59;5002536;28;19926;-77
2022/01/04 09:04:11;;;;;;;;;;;;;;;7.44;90.13;99675.72;4993129;28;19930;-76
2022/01/04 09:06:36;;;;;;;;;;;;;;;7.44;90.35;99662.75;5002188;28;19909;-76
2022/01/04 09:09:02;;;;;;;;;;;;;;;7.45;90.29;99651.53;4996865;28;19998;-76
2022/01/04 09:11:27;;;;;;;;;;;;;;;7.46;90.29;99673.16;5006187;28;19913;-76
2022/01/04 09:14:12;;;;;;;;;;;;;;;7.45;90.42;99666.22;5002852;28;19981;-76
2022/01/04 09:19:22;;;;;;;;;;;;;;;7.47;90.30;99657.63;4996522;28;20476;-76
2022/01/04 09:21:48;;;;;;;;;;;;;;;7.48;90.10;99654.16;5002269;28;20029;-76
2022/01/04 09:24:13;;;;;;;;;;;;;;;7.48;90.37;99648.97;5000762;28;20060;-77
2022/01/04 09:26:39;;;;;;;;;;;;;;;7.48;90.35;99656.75;4998814;28;19917;-77
2022/01/04 09:29:04;;;;;;;;;;;;;;;7.49;90.30;99666.28;5000263;28;19925;-76
2022/01/04 09:31:30;;;;;;;;;;;;;;;7.51;90.31;99678.41;5001439;28;20884;-76
2022/01/04 09:33:56;;;;;;;;;;;;;;;7.52;90.06;99687.91;4996860;28;19917;-76
2022/01/04 09:36:21;;;;;;;;;;;;;;;7.52;90.14;99688.81;5002431;28;19921;-76
2022/01/04 09:38:47;;;;;;;;;;;;;;;7.53;90.38;99684.47;4999831;28;20097;-76
2022/01/04 09:41:12;;;;;;;;;;;;;;;7.52;90.42;99686.22;5002454;28;19964;-77
2022/01/04 09:43:37;;;;;;;;;;;;;;;7.55;90.46;99683.66;5005912;28;19906;-77
2022/01/04 09:46:03;;;;;;;;;;;;;;;7.54;90.33;99679.31;5004168;28;19936;-77
2022/01/04 09:48:28;;;;;;;;;;;;;;;7.55;90.19;99667.25;5005803;28;19910;-77
2022/01/04 09:50:55;;;;;;;;;;;;;;;7.56;90.62;99680.22;5005537;28;19961;-77
2022/01/04 09:53:21;;;;;;;;;;;;;;;7.56;90.10;99682.81;5001727;28;20060;-77
2022/01/04 09:55:53;;;;;;;;;;;;;;;7.58;90.34;99675.94;5006248;28;19999;-77
2022/01/04 09:58:19;;;;;;;;;;;;;;;7.59;90.20;99669.00;5005863;28;19910;-77
2022/01/04 10:00:45;;;;;;;;;;;;;;;7.59;90.03;99663.84;5015376;28;19906;-77
2022/01/04 10:03:12;;;;;;;;;;;;;;;7.60;90.41;99663.88;5005225;28;20089;-76
2022/01/04 10:05:37;;;;;;;;;;;;;;;7.59;90.24;99664.72;5005159;28;19913;-76
2022/01/04 10:08:04;;;;;;;;;;;;;;;7.60;90.25;99663.88;5005106;28;20927;-77
2022/01/04 10:10:29;;;;;;;;;;;;;;;7.61;90.29;99662.16;5001984;28;19933;-77
2022/01/04 10:13:02;;;;;;;;;;;;;;;7.63;90.08;99657.84;5006172;28;20056;-77
2022/01/04 10:15:33;;;;;;;;;;;;;;;7.64;90.24;99660.47;4997589;28;20025;-76
2022/01/04 10:18:01;;;;;;;;;;;;;;;7.65;90.39;99653.59;5013387;28;20145;-75
2022/01/04 10:20:26;;;;;;;;;;;;;;;7.69;90.11;99638.94;5008485;28;19926;-77
2022/01/04 10:22:52;;;;;;;;;;;;;;;7.71;90.32;99634.66;5002482;28;19910;-77
2022/01/04 10:25:19;;;;;;;;;;;;;;;7.74;90.13;99639.91;5004067;28;19917;-76
2022/01/04 10:27:46;;;;;;;;;;;;;;;7.73;90.25;99641.59;4999413;28;20124;-76
2022/01/04 10:30:11;;;;;;;;;;;;;;;7.75;89.92;99641.63;4996185;28;19997;-77
2022/01/04 10:32:55;;;;;;;;;;;;;;;7.75;89.74;99636.44;5001360;28;19941;-77
2022/01/04 10:35:20;;;;;;;;;;;;;;;7.76;90.03;99640.78;5001982;28;19937;-77
2022/01/04 10:37:45;;;;;;;;;;;;;;;7.78;90.11;99632.19;5002867;28;19917;-76
2022/01/04 10:40:11;;;;;;;;;;;;;;;7.81;90.18;99628.78;5002499;28;20116;-76
2022/01/04 10:42:36;;;;;;;;;;;;;;;7.82;89.96;99620.13;5004842;28;20087;-77
2022/01/04 10:45:19;;;;;;;;;;;;;;;7.83;90.02;99630.53;5001477;28;20172;-76
2022/01/04 10:47:44;;;;;;;;;;;;;;;7.85;90.02;99638.34;5005693;28;19911;-77
2022/01/04 10:50:09;;;;;;;;;;;;;;;7.89;89.92;99632.31;5001903;28;20000;-77
2022/01/04 10:52:35;;;;;;;;;;;;;;;7.90;89.94;99625.44;5000964;28;20016;-76
2022/01/04 10:55:13;;;;;;;;;;;;;;;7.91;89.94;99627.19;5002626;28;20027;-77
2022/01/04 10:57:38;;;;;;;;;;;;;;;7.90;90.08;99626.31;5000967;28;20042;-77
2022/01/04 11:00:17;;;;;;;;;;;;;;;7.94;89.82;99627.22;5001858;28;19916;-77
2022/01/04 11:02:42;;;;;;;;;;;;;;;7.92;89.92;99636.69;4997815;28;19910;-77
2022/01/04 11:05:11;;;;;;;;;;;;;;;7.95;89.95;99629.84;5003028;28;19952;-77
2022/01/04 11:07:54;;;;;;;;;;;;;;;7.96;89.92;99625.53;5003327;28;19933;-79
2022/01/04 11:10:20;;;;;;;;;;;;;;;7.97;90.09;99629.88;5004246;28;19920;-66
2022/01/04 11:12:45;;;;;;;;;;;;;;;7.98;89.85;99626.41;5004809;28;19909;-66
2022/01/04 11:15:10;;;;;;;;;;;;;;;8.00;89.99;99622.97;5005225;28;19928;-66
2022/01/04 11:17:35;;;;;;;;;;;;;;;8.01;89.87;99618.69;5005946;28;20168;-66
2022/01/04 11:20:01;;;;;;;;;;;;;;;8.00;89.79;99614.34;4998791;28;20160;-66
2022/01/04 11:22:26;;;;;;;;;;;;;;;8.00;89.93;99616.94;5004893;28;19932;-66
2022/01/04 11:24:52;;;;;;;;;;;;;;;8.00;89.71;99617.78;4993881;28;20096;-66
2022/01/04 11:27:17;;;;;;;;;;;;;;;8.01;89.93;99629.94;5004616;28;20045;-66
2022/01/04 11:29:45;;;;;;;;;;;;;;;8.01;90.04;99623.88;5003056;28;20068;-66
2022/01/04 11:32:14;;;;;;;;;;;;;;;8.02;89.97;99628.19;5003018;28;19916;-66
2022/01/04 11:34:43;;;;;;;;;;;;;;;8.03;89.85;99632.53;5004219;28;20152;-66
2022/01/04 11:37:15;;;;;;;;;;;;;;;8.03;90.23;99649.84;5006590;28;19910;-66
2022/01/04 11:39:40;;;;;;;;;;;;;;;7.97;89.27;99668.78;5000823;28;19937;-67
2022/01/04 11:42:07;;;;;;;;;;;;;;;7.88;88.84;99681.59;5004430;28;19916;-66
2022/01/04 11:44:34;;;;;;;;;;;;;;;7.77;88.74;99691.81;5004750;28;19917;-66
2022/01/04 11:47:05;;;;;;;;;;;;;;;7.66;88.98;99689.00;5004817;28;19948;-67
2022/01/04 11:49:30;;;;;;;;;;;;;;;7.51;88.50;99689.63;5003921;28;19925;-67
2022/01/04 11:51:56;;;;;;;;;;;;;;;7.34;89.05;99684.16;5004110;28;19945;-67
2022/01/04 11:54:21;;;;;;;;;;;;;;;7.21;89.18;99679.59;5005391;28;19905;-67
2022/01/04 11:56:51;;;;;;;;;;;;;;;7.08;88.66;99694.94;5003125;28;19945;-73
2022/01/04 11:59:22;;;;;;;;;;;;;;;6.99;89.01;99684.38;5002450;28;20250;-73
2022/01/04 12:01:48;;;;;;;;;;;;;;;6.92;88.80;99686.00;4997405;28;20045;-72
2022/01/04 12:06:41;;;;;;;3.92;1.55;;;;;;;6.92;89.16;99687.69;5108636;27;20354;-68
2022/01/04 12:09:29;;;;;;;4.80;1.80;;;;;;;6.88;89.21;99686.78;5114119;28;20011;-68
2022/01/04 12:11:54;;;;;;;6.15;1.95;;;;;;;6.84;89.88;99678.91;5103938;28;20040;-68
2022/01/04 12:14:24;;;;;;;6.93;2.25;;;;;;;6.81;89.44;99676.25;5102765;28;20031;-68
2022/01/04 12:17:04;;;;;;;5.15;2.08;;;;;;;6.80;89.08;99680.56;5107441;28;20211;-68
2022/01/04 12:19:50;;;;;;;5.80;2.20;;;;;;;6.77;90.01;99670.13;5109140;28;20038;-68
2022/01/04 12:22:30;;;;;;;7.47;2.95;;;;;;;6.77;90.68;99668.41;5109019;28;20298;-68
2022/01/04 12:25:02;;;;;;;6.70;2.83;;;;;;;6.81;90.34;99664.19;5109925;28;20170;-68
2022/01/04 12:27:28;;;;;;;11.60;3.50;;;;;;;6.86;90.36;99661.69;5105164;28;20012;-68
2022/01/04 12:30:26;;;;;;;11.07;3.55;;;;;;;6.90;90.31;99655.72;5106004;28;20139;-68
2022/01/04 12:32:52;;;;;;;12.93;4.50;;;;;;;6.93;90.58;99655.78;5101157;28;20040;-68
2022/01/04 12:35:18;;;;;;;11.13;4.35;;;;;;;6.98;91.01;99651.56;5105813;28;20027;-68
2022/01/04 12:37:43;;;;;;;15.68;6.00;;;;;;;7.01;91.00;99659.41;5108105;28;20008;-68
2022/01/04 12:40:09;;;;;;;15.30;6.03;;;;;;;7.04;90.54;99654.28;5104882;28;20078;-68
2022/01/04 12:42:35;;;;;;;12.07;5.60;;;;;;;7.06;90.96;99639.63;5113218;28;20038;-68
2022/01/04 12:45:00;;;;;;;13.63;5.63;;;;;;;7.09;91.08;99642.25;5105888;28;20061;-68
2022/01/04 12:47:27;;;;;;;17.98;6.28;;;;;;;7.13;91.57;99636.28;5100338;27;20020;-68
2022/01/04 12:49:56;;;;;;;20.48;6.68;;;;;;;7.17;91.35;99633.75;5108387;28;20033;-68
2022/01/04 12:52:22;;;;;;;16.70;6.75;;;;;;;7.18;91.57;99636.38;5106149;28;20038;-68
2022/01/04 12:54:47;;;;;;;19.02;7.05;;;;;;;7.21;91.14;99630.38;5115025;28;20016;-68